Terminal Aerodrome Forecast
Issued by NWS Tallahassee, FL

Home | Current Version | Previous Version | Text Only | Print | Product List | Glossary On
Versions: 1 2 3 4 5 6 7 8 9 10 11 12 13 14 15 16 17 18 19 20
000
FTUS42 KTAE 191411 AAB
TAFTLH
TAF AMD
KTLH 191411Z 1914/2012 18012G18KT P6SM BKN015
     FM191700 21013G20KT 2SM +TSRA SCT003 BKN020CB
     FM192300 22010G15KT P6SM OVC015
     FM200300 21005KT P6SM SCT250
     FM200600 19004KT 5SM BR OVC007
     FM200900 00000KT 2SM BR OVC004=

USA.gov is the U.S. government's official web portal to all federal, state and local government web resources and services.